sensor_id;sensor_type;location;lat;lon;timestamp;pressure;altitude;pressure_sealevel;temperature;humidity
52745;BME280;38637;49.984;20.426;2023-07-20T00:01:01;98531.75;;;20.77;72.46
52745;BME280;38637;49.984;20.426;2023-07-20T00:03:27;98565.03;;;20.89;72.50
52745;BME280;38637;49.984;20.426;2023-07-20T00:05:52;98565.38;;;20.75;71.60
52745;BME280;38637;49.984;20.426;2023-07-20T00:08:18;98560.22;;;20.61;71.89
52745;BME280;38637;49.984;20.426;2023-07-20T00:10:44;98561.38;;;20.60;72.08
52745;BME280;38637;49.984;20.426;2023-07-20T00:13:10;98551.50;;;20.51;72.58
52745;BME280;38637;49.984;20.426;2023-07-20T00:15:36;98550.81;;;20.41;73.20
52745;BME280;38637;49.984;20.426;2023-07-20T00:18:02;98550.50;;;20.31;73.57
52745;BME280;38637;49.984;20.426;2023-07-20T00:20:28;98542.66;;;20.20;73.91
52745;BME280;38637;49.984;20.426;2023-07-20T00:22:53;98553.25;;;20.18;74.04
52745;BME280;38637;49.984;20.426;2023-07-20T00:25:19;98549.44;;;20.11;74.29
52745;BME280;38637;49.984;20.426;2023-07-20T00:27:45;98543.66;;;20.04;74.21
52745;BME280;38637;49.984;20.426;2023-07-20T00:30:10;98550.25;;;19.99;74.49
52745;BME280;38637;49.984;20.426;2023-07-20T00:32:36;98553.72;;;19.96;74.82
52745;BME280;38637;49.984;20.426;2023-07-20T00:35:01;98556.00;;;19.94;74.73
52745;BME280;38637;49.984;20.426;2023-07-20T00:37:27;98558.31;;;19.92;75.04
52745;BME280;38637;49.984;20.426;2023-07-20T00:39:53;98552.63;;;19.88;75.16
52745;BME280;38637;49.984;20.426;2023-07-20T00:42:18;98542.25;;;19.85;75.67
52745;BME280;38637;49.984;20.426;2023-07-20T00:44:43;98542.34;;;19.77;75.80
52745;BME280;38637;49.984;20.426;2023-07-20T00:47:08;98539.22;;;19.66;75.96
52745;BME280;38637;49.984;20.426;2023-07-20T00:49:34;98545.59;;;19.58;76.27
52745;BME280;38637;49.984;20.426;2023-07-20T00:52:01;98548.00;;;19.47;77.01
52745;BME280;38637;49.984;20.426;2023-07-20T00:54:28;98548.41;;;19.37;77.38
52745;BME280;38637;49.984;20.426;2023-07-20T00:56:54;98538.69;;;19.31;78.01
52745;BME280;38637;49.984;20.426;2023-07-20T00:59:20;98549.84;;;19.22;78.18
52745;BME280;38637;49.984;20.426;2023-07-20T01:01:46;98543.63;;;19.25;78.08
52745;BME280;38637;49.984;20.426;2023-07-20T01:04:11;98541.81;;;19.29;77.90
52745;BME280;38637;49.984;20.426;2023-07-20T01:06:47;98543.56;;;19.34;77.89
52745;BME280;38637;49.984;20.426;2023-07-20T01:09:22;98538.03;;;19.34;77.92
52745;BME280;38637;49.984;20.426;2023-07-20T01:14:36;98536.22;;;19.38;77.78
52745;BME280;38637;49.984;20.426;2023-07-20T01:17:03;98538.81;;;19.34;77.89
52745;BME280;38637;49.984;20.426;2023-07-20T01:19:28;98533.66;;;19.33;78.38
52745;BME280;38637;49.984;20.426;2023-07-20T01:21:59;98530.88;;;19.33;78.18
52745;BME280;38637;49.984;20.426;2023-07-20T01:32:24;98537.09;;;19.29;78.76
52745;BME280;38637;49.984;20.426;2023-07-20T01:34:52;98543.09;;;19.32;78.46
52745;BME280;38637;49.984;20.426;2023-07-20T01:37:20;98551.63;;;19.26;79.07
52745;BME280;38637;49.984;20.426;2023-07-20T01:39:47;98550.69;;;19.22;78.90
52745;BME280;38637;49.984;20.426;2023-07-20T01:42:12;98542.03;;;19.24;78.91
52745;BME280;38637;49.984;20.426;2023-07-20T01:44:38;98531.97;;;19.19;79.12
52745;BME280;38637;49.984;20.426;2023-07-20T01:47:04;98543.97;;;19.23;79.41
52745;BME280;38637;49.984;20.426;2023-07-20T01:49:29;98531.03;;;19.15;79.53
52745;BME280;38637;49.984;20.426;2023-07-20T01:51:54;98549.28;;;19.16;80.31
52745;BME280;38637;49.984;20.426;2023-07-20T01:54:19;98546.81;;;19.15;80.04
52745;BME280;38637;49.984;20.426;2023-07-20T01:56:46;98545.66;;;19.16;79.80
52745;BME280;38637;49.984;20.426;2023-07-20T01:59:11;98539.31;;;19.15;80.51
52745;BME280;38637;49.984;20.426;2023-07-20T02:01:36;98544.53;;;19.17;80.69
52745;BME280;38637;49.984;20.426;2023-07-20T02:04:02;98547.75;;;19.19;80.85
52745;BME280;38637;49.984;20.426;2023-07-20T02:06:27;98532.31;;;19.18;81.82
52745;BME280;38637;49.984;20.426;2023-07-20T02:08:52;98531.94;;;19.07;82.92
52745;BME280;38637;49.984;20.426;2023-07-20T02:11:18;98557.88;;;18.94;83.63
52745;BME280;38637;49.984;20.426;2023-07-20T02:13:43;98586.28;;;18.82;84.21
52745;BME280;38637;49.984;20.426;2023-07-20T02:16:08;98589.59;;;18.75;85.77
52745;BME280;38637;49.984;20.426;2023-07-20T02:18:34;98601.81;;;18.74;85.61
52745;BME280;38637;49.984;20.426;2023-07-20T02:21:01;98603.22;;;18.80;85.45
52745;BME280;38637;49.984;20.426;2023-07-20T02:23:26;98597.50;;;18.86;85.41
52745;BME280;38637;49.984;20.426;2023-07-20T02:25:51;98593.41;;;18.92;84.74
52745;BME280;38637;49.984;20.426;2023-07-20T02:28:17;98587.34;;;18.98;84.29
52745;BME280;38637;49.984;20.426;2023-07-20T02:30:42;98591.16;;;19.06;83.97
52745;BME280;38637;49.984;20.426;2023-07-20T02:33:08;98597.78;;;19.14;83.54
52745;BME280;38637;49.984;20.426;2023-07-20T02:35:33;98590.91;;;19.20;82.96
52745;BME280;38637;49.984;20.426;2023-07-20T02:37:59;98585.50;;;19.23;82.42
52745;BME280;38637;49.984;20.426;2023-07-20T02:40:24;98585.63;;;19.27;82.10
52745;BME280;38637;49.984;20.426;2023-07-20T02:42:49;98579.78;;;19.28;81.89
52745;BME280;38637;49.984;20.426;2023-07-20T02:45:15;98564.22;;;19.15;81.85
52745;BME280;38637;49.984;20.426;2023-07-20T02:47:41;98576.44;;;19.35;81.47
52745;BME280;38637;49.984;20.426;2023-07-20T02:50:08;98579.34;;;19.39;81.56
52745;BME280;38637;49.984;20.426;2023-07-20T02:52:33;98574.97;;;19.38;81.16
52745;BME280;38637;49.984;20.426;2023-07-20T02:54:59;98576.69;;;19.42;80.84
52745;BME280;38637;49.984;20.426;2023-07-20T02:57:24;98583.16;;;19.46;80.66
52745;BME280;38637;49.984;20.426;2023-07-20T02:59:50;98579.16;;;19.44;80.36
52745;BME280;38637;49.984;20.426;2023-07-20T03:02:15;98589.00;;;19.54;80.10
52745;BME280;38637;49.984;20.426;2023-07-20T03:04:40;98584.84;;;19.60;79.88
52745;BME280;38637;49.984;20.426;2023-07-20T03:07:05;98584.66;;;19.65;78.88
52745;BME280;38637;49.984;20.426;2023-07-20T03:09:32;98583.16;;;19.67;78.65
52745;BME280;38637;49.984;20.426;2023-07-20T03:11:57;98586.91;;;19.71;78.13
52745;BME280;38637;49.984;20.426;2023-07-20T03:14:22;98591.28;;;19.72;76.88
52745;BME280;38637;49.984;20.426;2023-07-20T03:16:49;98590.78;;;19.70;76.36
52745;BME280;38637;49.984;20.426;2023-07-20T03:19:14;98595.88;;;19.68;76.62
52745;BME280;38637;49.984;20.426;2023-07-20T03:21:39;98599.47;;;19.69;76.49
52745;BME280;38637;49.984;20.426;2023-07-20T03:24:07;98606.63;;;19.70;76.20
52745;BME280;38637;49.984;20.426;2023-07-20T03:26:33;98611.81;;;19.71;75.98
52745;BME280;38637;49.984;20.426;2023-07-20T03:28:59;98612.75;;;19.76;76.06
52745;BME280;38637;49.984;20.426;2023-07-20T03:31:25;98610.91;;;19.80;76.01
52745;BME280;38637;49.984;20.426;2023-07-20T03:33:50;98601.22;;;19.86;76.01
52745;BME280;38637;49.984;20.426;2023-07-20T03:36:15;98612.00;;;19.87;76.06
52745;BME280;38637;49.984;20.426;2023-07-20T03:38:40;98626.66;;;19.88;76.25
52745;BME280;38637;49.984;20.426;2023-07-20T03:41:06;98630.59;;;19.87;76.77
52745;BME280;38637;49.984;20.426;2023-07-20T03:43:31;98623.06;;;19.87;77.09
52745;BME280;38637;49.984;20.426;2023-07-20T03:45:56;98623.41;;;19.86;77.01
52745;BME280;38637;49.984;20.426;2023-07-20T03:48:23;98625.25;;;19.82;77.06
52745;BME280;38637;49.984;20.426;2023-07-20T03:50:50;98630.97;;;19.77;77.24
52745;BME280;38637;49.984;20.426;2023-07-20T03:53:16;98633.75;;;19.77;77.54
52745;BME280;38637;49.984;20.426;2023-07-20T03:55:46;98634.34;;;19.82;77.24
52745;BME280;38637;49.984;20.426;2023-07-20T03:58:12;98650.78;;;19.87;77.05
52745;BME280;38637;49.984;20.426;2023-07-20T04:00:38;98659.09;;;19.87;76.81
52745;BME280;38637;49.984;20.426;2023-07-20T04:03:04;98663.16;;;19.90;76.99
52745;BME280;38637;49.984;20.426;2023-07-20T04:05:29;98673.41;;;19.89;76.66
52745;BME280;38637;49.984;20.426;2023-07-20T04:07:55;98678.13;;;19.89;77.09
52745;BME280;38637;49.984;20.426;2023-07-20T04:10:20;98684.63;;;19.93;77.04
52745;BME280;38637;49.984;20.426;2023-07-20T04:12:45;98691.19;;;19.88;77.21
52745;BME280;38637;49.984;20.426;2023-07-20T04:15:14;98687.88;;;19.74;78.71
52745;BME280;38637;49.984;20.426;2023-07-20T04:17:40;98679.00;;;19.68;79.65
52745;BME280;38637;49.984;20.426;2023-07-20T04:20:06;98692.19;;;19.63;80.78
52745;BME280;38637;49.984;20.426;2023-07-20T04:22:32;98703.81;;;19.56;81.49
52745;BME280;38637;49.984;20.426;2023-07-20T04:24:57;98705.50;;;19.48;81.98
52745;BME280;38637;49.984;20.426;2023-07-20T04:27:22;98707.94;;;19.50;82.04
52745;BME280;38637;49.984;20.426;2023-07-20T04:29:48;98703.22;;;19.50;81.81
52745;BME280;38637;49.984;20.426;2023-07-20T04:32:13;98701.31;;;19.42;81.57
52745;BME280;38637;49.984;20.426;2023-07-20T04:34:38;98716.25;;;19.50;82.07
52745;BME280;38637;49.984;20.426;2023-07-20T04:37:04;98717.31;;;19.58;81.78
52745;BME280;38637;49.984;20.426;2023-07-20T04:39:30;98721.88;;;19.62;81.21
52745;BME280;38637;49.984;20.426;2023-07-20T04:41:55;98741.09;;;19.59;81.33
52745;BME280;38637;49.984;20.426;2023-07-20T04:44:21;98741.44;;;19.57;80.58
52745;BME280;38637;49.984;20.426;2023-07-20T04:46:46;98739.81;;;19.56;79.65
52745;BME280;38637;49.984;20.426;2023-07-20T04:49:11;98745.69;;;19.55;78.52
52745;BME280;38637;49.984;20.426;2023-07-20T04:51:38;98744.06;;;19.54;79.22
52745;BME280;38637;49.984;20.426;2023-07-20T04:54:03;98747.97;;;19.52;78.59
52745;BME280;38637;49.984;20.426;2023-07-20T04:56:29;98745.19;;;19.52;78.59
52745;BME280;38637;49.984;20.426;2023-07-20T04:58:54;98758.69;;;19.63;78.66
52745;BME280;38637;49.984;20.426;2023-07-20T05:01:19;98747.31;;;19.56;79.13
52745;BME280;38637;49.984;20.426;2023-07-20T05:03:45;98760.53;;;19.80;78.61
52745;BME280;38637;49.984;20.426;2023-07-20T05:06:10;98764.69;;;20.28;77.29
52745;BME280;38637;49.984;20.426;2023-07-20T05:08:36;98786.53;;;20.62;74.26
52745;BME280;38637;49.984;20.426;2023-07-20T05:11:01;98762.97;;;20.69;68.79
52745;BME280;38637;49.984;20.426;2023-07-20T05:13:26;98773.59;;;20.54;69.42
52745;BME280;38637;49.984;20.426;2023-07-20T05:15:52;98775.22;;;20.34;69.34
52745;BME280;38637;49.984;20.426;2023-07-20T05:18:18;98791.81;;;20.22;69.70
52745;BME280;38637;49.984;20.426;2023-07-20T05:20:46;98795.31;;;20.10;69.29
52745;BME280;38637;49.984;20.426;2023-07-20T05:23:11;98802.69;;;20.06;70.15
52745;BME280;38637;49.984;20.426;2023-07-20T05:25:37;98817.72;;;20.05;70.70
52745;BME280;38637;49.984;20.426;2023-07-20T05:28:02;98821.16;;;20.02;70.69
52745;BME280;38637;49.984;20.426;2023-07-20T05:30:27;98821.97;;;19.82;72.04
52745;BME280;38637;49.984;20.426;2023-07-20T05:32:54;98822.97;;;19.47;76.22
52745;BME280;38637;49.984;20.426;2023-07-20T05:35:20;98828.31;;;19.14;79.45
52745;BME280;38637;49.984;20.426;2023-07-20T05:37:45;98815.53;;;19.01;80.68
52745;BME280;38637;49.984;20.426;2023-07-20T05:40:11;98833.13;;;18.88;79.23
52745;BME280;38637;49.984;20.426;2023-07-20T05:42:38;98838.84;;;18.82;76.77
52745;BME280;38637;49.984;20.426;2023-07-20T05:45:03;98844.84;;;18.85;77.50
52745;BME280;38637;49.984;20.426;2023-07-20T05:47:29;98834.94;;;18.83;77.31
52745;BME280;38637;49.984;20.426;2023-07-20T05:49:54;98840.63;;;18.87;77.94
52745;BME280;38637;49.984;20.426;2023-07-20T05:52:19;98833.13;;;18.88;75.26
52745;BME280;38637;49.984;20.426;2023-07-20T05:54:45;98833.94;;;18.88;76.51
52745;BME280;38637;49.984;20.426;2023-07-20T05:57:10;98828.50;;;19.09;77.24
52745;BME280;38637;49.984;20.426;2023-07-20T05:59:36;98834.47;;;19.28;76.85
52745;BME280;38637;49.984;20.426;2023-07-20T06:02:01;98839.84;;;19.55;75.32
52745;BME280;38637;49.984;20.426;2023-07-20T06:04:26;98836.56;;;19.61;75.16
52745;BME280;38637;49.984;20.426;2023-07-20T06:06:52;98831.81;;;19.70;74.69
52745;BME280;38637;49.984;20.426;2023-07-20T06:09:17;98822.78;;;19.82;73.82
52745;BME280;38637;49.984;20.426;2023-07-20T06:11:43;98831.59;;;20.05;73.92
52745;BME280;38637;49.984;20.426;2023-07-20T06:14:08;98812.44;;;20.33;73.87
52745;BME280;38637;49.984;20.426;2023-07-20T06:16:33;98807.72;;;20.46;72.54
52745;BME280;38637;49.984;20.426;2023-07-20T06:19:02;98800.59;;;20.91;71.75
52745;BME280;38637;49.984;20.426;2023-07-20T06:21:27;98794.16;;;21.23;70.55
52745;BME280;38637;49.984;20.426;2023-07-20T06:23:53;98799.94;;;21.18;68.32
52745;BME280;38637;49.984;20.426;2023-07-20T06:26:18;98804.81;;;21.09;69.59
52745;BME280;38637;49.984;20.426;2023-07-20T06:28:44;98794.16;;;21.11;68.80
52745;BME280;38637;49.984;20.426;2023-07-20T06:31:10;98793.25;;;21.31;68.67
52745;BME280;38637;49.984;20.426;2023-07-20T06:33:35;98797.63;;;21.57;67.01
52745;BME280;38637;49.984;20.426;2023-07-20T06:36:01;98787.31;;;21.70;67.26
52745;BME280;38637;49.984;20.426;2023-07-20T06:38:26;98813.03;;;21.67;65.51
52745;BME280;38637;49.984;20.426;2023-07-20T06:40:52;98799.25;;;21.70;66.23
52745;BME280;38637;49.984;20.426;2023-07-20T06:43:17;98795.19;;;21.80;66.03
52745;BME280;38637;49.984;20.426;2023-07-20T06:45:43;98790.44;;;21.80;64.99
52745;BME280;38637;49.984;20.426;2023-07-20T06:48:08;98781.78;;;21.57;64.94
52745;BME280;38637;49.984;20.426;2023-07-20T06:50:33;98786.78;;;21.64;65.11
52745;BME280;38637;49.984;20.426;2023-07-20T06:52:59;98789.66;;;21.68;64.73
52745;BME280;38637;49.984;20.426;2023-07-20T06:55:25;98794.63;;;21.74;66.43
52745;BME280;38637;49.984;20.426;2023-07-20T06:57:50;98789.25;;;21.82;65.84
52745;BME280;38637;49.984;20.426;2023-07-20T07:00:16;98789.59;;;21.92;65.81
52745;BME280;38637;49.984;20.426;2023-07-20T07:02:41;98797.72;;;21.85;63.79
52745;BME280;38637;49.984;20.426;2023-07-20T07:05:07;98786.63;;;21.73;63.65
52745;BME280;38637;49.984;20.426;2023-07-20T07:07:32;98787.56;;;21.77;63.30
52745;BME280;38637;49.984;20.426;2023-07-20T07:09:59;98793.72;;;21.70;62.17
52745;BME280;38637;49.984;20.426;2023-07-20T07:12:25;98798.69;;;21.65;62.61
52745;BME280;38637;49.984;20.426;2023-07-20T07:14:50;98792.88;;;21.70;62.22
52745;BME280;38637;49.984;20.426;2023-07-20T07:17:15;98788.25;;;21.74;62.41
52745;BME280;38637;49.984;20.426;2023-07-20T07:19:41;98801.69;;;21.60;63.41
52745;BME280;38637;49.984;20.426;2023-07-20T07:22:07;98803.78;;;21.63;63.65
52745;BME280;38637;49.984;20.426;2023-07-20T07:24:32;98804.00;;;21.70;63.77
52745;BME280;38637;49.984;20.426;2023-07-20T07:27:01;98805.38;;;21.76;63.79
52745;BME280;38637;49.984;20.426;2023-07-20T07:29:27;98809.28;;;21.87;62.37
52745;BME280;38637;49.984;20.426;2023-07-20T07:31:52;98806.50;;;21.99;61.70
52745;BME280;38637;49.984;20.426;2023-07-20T07:34:17;98804.47;;;22.12;61.33
52745;BME280;38637;49.984;20.426;2023-07-20T07:36:43;98808.06;;;22.25;62.02
52745;BME280;38637;49.984;20.426;2023-07-20T07:39:08;98817.56;;;22.24;60.72
52745;BME280;38637;49.984;20.426;2023-07-20T07:41:34;98813.41;;;22.18;60.84
52745;BME280;38637;49.984;20.426;2023-07-20T07:43:59;98815.69;;;22.28;60.07
52745;BME280;38637;49.984;20.426;2023-07-20T07:46:25;98817.28;;;22.41;59.37
52745;BME280;38637;49.984;20.426;2023-07-20T07:48:50;98820.72;;;22.51;59.61
52745;BME280;38637;49.984;20.426;2023-07-20T07:51:15;98819.94;;;22.66;58.83
52745;BME280;38637;49.984;20.426;2023-07-20T07:53:41;98825.13;;;22.96;58.19
52745;BME280;38637;49.984;20.426;2023-07-20T07:56:07;98823.09;;;23.40;57.19
52745;BME280;38637;49.984;20.426;2023-07-20T07:58:33;98827.78;;;23.87;55.92
52745;BME280;38637;49.984;20.426;2023-07-20T08:00:59;98818.38;;;24.11;55.15
52745;BME280;38637;49.984;20.426;2023-07-20T08:03:24;98818.09;;;24.16;54.98
52745;BME280;38637;49.984;20.426;2023-07-20T08:05:53;98828.00;;;24.14;55.57
52745;BME280;38637;49.984;20.426;2023-07-20T08:08:19;98821.22;;;24.15;54.56
52745;BME280;38637;49.984;20.426;2023-07-20T08:10:44;98824.13;;;24.18;53.58
52745;BME280;38637;49.984;20.426;2023-07-20T08:13:10;98818.22;;;24.04;53.34
52745;BME280;38637;49.984;20.426;2023-07-20T08:15:35;98813.91;;;24.06;53.49
52745;BME280;38637;49.984;20.426;2023-07-20T08:18:00;98817.16;;;24.28;54.36
52745;BME280;38637;49.984;20.426;2023-07-20T08:20:25;98824.06;;;24.53;52.48
52745;BME280;38637;49.984;20.426;2023-07-20T08:22:53;98820.53;;;24.57;53.28
52745;BME280;38637;49.984;20.426;2023-07-20T08:25:19;98820.03;;;24.51;53.80
52745;BME280;38637;49.984;20.426;2023-07-20T08:27:45;98834.03;;;24.54;52.93
52745;BME280;38637;49.984;20.426;2023-07-20T08:30:12;98828.81;;;24.72;52.47
52745;BME280;38637;49.984;20.426;2023-07-20T08:32:38;98824.03;;;24.92;52.60
52745;BME280;38637;49.984;20.426;2023-07-20T08:35:03;98823.41;;;25.03;51.22
52745;BME280;38637;49.984;20.426;2023-07-20T08:37:29;98829.22;;;25.13;50.43
52745;BME280;38637;49.984;20.426;2023-07-20T08:39:54;98831.75;;;25.22;51.60
52745;BME280;38637;49.984;20.426;2023-07-20T08:42:20;98829.88;;;25.30;50.44
52745;BME280;38637;49.984;20.426;2023-07-20T08:44:48;98819.06;;;25.51;49.61
52745;BME280;38637;49.984;20.426;2023-07-20T08:47:16;98825.72;;;25.43;50.17
52745;BME280;38637;49.984;20.426;2023-07-20T08:49:41;98824.91;;;25.42;51.18
52745;BME280;38637;49.984;20.426;2023-07-20T08:52:08;98829.69;;;25.19;49.50
52745;BME280;38637;49.984;20.426;2023-07-20T08:54:33;98835.66;;;25.17;50.18
52745;BME280;38637;49.984;20.426;2023-07-20T08:57:03;98836.53;;;25.44;51.47
52745;BME280;38637;49.984;20.426;2023-07-20T08:59:29;98841.38;;;25.48;50.85
52745;BME280;38637;49.984;20.426;2023-07-20T09:01:56;98847.00;;;25.28;51.34
52745;BME280;38637;49.984;20.426;2023-07-20T09:04:22;98840.31;;;25.33;51.69
52745;BME280;38637;49.984;20.426;2023-07-20T09:06:49;98837.00;;;25.04;50.76
52745;BME280;38637;49.984;20.426;2023-07-20T09:09:14;98839.03;;;24.84;50.36
52745;BME280;38637;49.984;20.426;2023-07-20T09:11:40;98845.06;;;24.47;50.16
52745;BME280;38637;49.984;20.426;2023-07-20T09:14:06;98839.16;;;24.33;52.28
52745;BME280;38637;49.984;20.426;2023-07-20T09:16:32;98850.38;;;24.17;53.11
52745;BME280;38637;49.984;20.426;2023-07-20T09:18:58;98843.84;;;24.10;54.62
52745;BME280;38637;49.984;20.426;2023-07-20T09:21:28;98841.84;;;23.91;53.85
52745;BME280;38637;49.984;20.426;2023-07-20T09:23:56;98837.69;;;23.69;53.64
52745;BME280;38637;49.984;20.426;2023-07-20T09:26:22;98831.09;;;23.73;55.91
52745;BME280;38637;49.984;20.426;2023-07-20T09:28:53;98828.38;;;23.61;55.74
52745;BME280;38637;49.984;20.426;2023-07-20T09:31:22;98832.88;;;23.81;55.97
52745;BME280;38637;49.984;20.426;2023-07-20T09:33:49;98836.09;;;23.83;56.60
52745;BME280;38637;49.984;20.426;2023-07-20T09:36:14;98838.53;;;23.85;56.12
52745;BME280;38637;49.984;20.426;2023-07-20T09:38:41;98829.59;;;24.15;54.81
52745;BME280;38637;49.984;20.426;2023-07-20T09:41:07;98828.41;;;24.51;56.58
52745;BME280;38637;49.984;20.426;2023-07-20T09:43:34;98832.13;;;24.78;54.68
52745;BME280;38637;49.984;20.426;2023-07-20T09:45:59;98831.44;;;24.85;54.47
52745;BME280;38637;49.984;20.426;2023-07-20T09:48:25;98834.03;;;24.74;53.76
52745;BME280;38637;49.984;20.426;2023-07-20T09:50:52;98822.19;;;24.81;53.05
52745;BME280;38637;49.984;20.426;2023-07-20T09:53:17;98835.00;;;25.05;52.45
52745;BME280;38637;49.984;20.426;2023-07-20T09:55:44;98826.97;;;25.23;52.92
52745;BME280;38637;49.984;20.426;2023-07-20T09:58:10;98816.38;;;25.12;52.11
52745;BME280;38637;49.984;20.426;2023-07-20T10:00:37;98821.25;;;24.73;52.25
52745;BME280;38637;49.984;20.426;2023-07-20T10:03:06;98833.09;;;24.47;53.60
52745;BME280;38637;49.984;20.426;2023-07-20T10:05:37;98835.34;;;24.22;54.15
52745;BME280;38637;49.984;20.426;2023-07-20T10:08:04;98830.31;;;23.92;54.87
52745;BME280;38637;49.984;20.426;2023-07-20T10:10:33;98845.75;;;23.70;55.97
52745;BME280;38637;49.984;20.426;2023-07-20T10:13:00;98829.34;;;23.69;55.55
52745;BME280;38637;49.984;20.426;2023-07-20T10:15:37;98826.34;;;23.93;54.75
52745;BME280;38637;49.984;20.426;2023-07-20T10:18:29;98830.88;;;24.37;53.46
52745;BME280;38637;49.984;20.426;2023-07-20T10:20:55;98830.63;;;24.61;54.67
52745;BME280;38637;49.984;20.426;2023-07-20T10:23:22;98810.66;;;24.82;51.13
52745;BME280;38637;49.984;20.426;2023-07-20T10:25:48;98821.91;;;25.09;49.87
52745;BME280;38637;49.984;20.426;2023-07-20T10:28:14;98825.53;;;25.32;49.63
52745;BME280;38637;49.984;20.426;2023-07-20T10:30:41;98819.50;;;25.53;49.14
52745;BME280;38637;49.984;20.426;2023-07-20T10:33:08;98828.09;;;25.41;47.17
52745;BME280;38637;49.984;20.426;2023-07-20T10:36:03;98814.97;;;25.45;49.21
52745;BME280;38637;49.984;20.426;2023-07-20T10:38:57;98815.31;;;25.43;49.48
52745;BME280;38637;49.984;20.426;2023-07-20T10:41:32;98822.31;;;25.30;50.57
52745;BME280;38637;49.984;20.426;2023-07-20T10:44:03;98818.56;;;24.99;48.93
52745;BME280;38637;49.984;20.426;2023-07-20T10:49:07;98824.34;;;24.68;51.82
52745;BME280;38637;49.984;20.426;2023-07-20T10:51:41;98831.84;;;24.64;50.07
52745;BME280;38637;49.984;20.426;2023-07-20T10:56:41;98837.50;;;24.48;50.76
52745;BME280;38637;49.984;20.426;2023-07-20T10:59:18;98836.19;;;24.61;51.32
52745;BME280;38637;49.984;20.426;2023-07-20T11:01:47;98820.28;;;24.85;52.10
52745;BME280;38637;49.984;20.426;2023-07-20T11:04:16;98824.34;;;25.10;51.60
52745;BME280;38637;49.984;20.426;2023-07-20T11:06:43;98825.16;;;25.34;50.10
52745;BME280;38637;49.984;20.426;2023-07-20T11:09:13;98822.88;;;25.66;49.55
52745;BME280;38637;49.984;20.426;2023-07-20T11:11:48;98820.69;;;25.79;48.59
52745;BME280;38637;49.984;20.426;2023-07-20T11:14:24;98811.53;;;25.55;48.40
52745;BME280;38637;49.984;20.426;2023-07-20T11:16:53;98816.69;;;25.53;49.30
52745;BME280;38637;49.984;20.426;2023-07-20T11:19:22;98804.84;;;25.37;47.25
52745;BME280;38637;49.984;20.426;2023-07-20T11:21:56;98816.47;;;25.16;49.49
52745;BME280;38637;49.984;20.426;2023-07-20T11:24:22;98805.88;;;25.06;49.46
52745;BME280;38637;49.984;20.426;2023-07-20T11:26:51;98802.66;;;25.04;50.65
52745;BME280;38637;49.984;20.426;2023-07-20T11:29:18;98808.47;;;25.14;49.32
52745;BME280;38637;49.984;20.426;2023-07-20T11:31:45;98803.78;;;24.99;48.13
52745;BME280;38637;49.984;20.426;2023-07-20T11:34:13;98812.91;;;24.96;49.58
52745;BME280;38637;49.984;20.426;2023-07-20T11:36:44;98810.41;;;24.91;48.19
52745;BME280;38637;49.984;20.426;2023-07-20T11:39:12;98801.50;;;25.05;50.46
52745;BME280;38637;49.984;20.426;2023-07-20T11:41:38;98818.84;;;25.14;50.09
52745;BME280;38637;49.984;20.426;2023-07-20T11:44:05;98799.22;;;24.91;49.84
52745;BME280;38637;49.984;20.426;2023-07-20T11:46:41;98796.13;;;24.73;49.98
52745;BME280;38637;49.984;20.426;2023-07-20T11:49:08;98800.53;;;24.74;49.92
52745;BME280;38637;49.984;20.426;2023-07-20T11:51:34;98789.47;;;24.58;49.55
52745;BME280;38637;49.984;20.426;2023-07-20T11:54:02;98787.16;;;24.64;49.87
52745;BME280;38637;49.984;20.426;2023-07-20T11:56:27;98786.25;;;24.56;49.70
52745;BME280;38637;49.984;20.426;2023-07-20T11:59:00;98773.94;;;24.61;49.41
52745;BME280;38637;49.984;20.426;2023-07-20T12:01:27;98792.72;;;24.83;49.62
52745;BME280;38637;49.984;20.426;2023-07-20T12:04:01;98779.09;;;25.01;48.72
52745;BME280;38637;49.984;20.426;2023-07-20T12:06:28;98790.28;;;24.82;47.78
52745;BME280;38637;49.984;20.426;2023-07-20T12:08:55;98788.41;;;24.66;48.02
52745;BME280;38637;49.984;20.426;2023-07-20T12:11:45;98779.13;;;25.05;48.55
52745;BME280;38637;49.984;20.426;2023-07-20T12:14:10;98779.78;;;25.17;47.82
52745;BME280;38637;49.984;20.426;2023-07-20T12:16:37;98774.06;;;25.60;47.47
52745;BME280;38637;49.984;20.426;2023-07-20T12:21:34;98771.22;;;25.83;45.64
52745;BME280;38637;49.984;20.426;2023-07-20T12:24:00;98775.44;;;25.73;47.48
52745;BME280;38637;49.984;20.426;2023-07-20T12:26:26;98767.50;;;25.49;46.92
52745;BME280;38637;49.984;20.426;2023-07-20T12:28:54;98775.53;;;25.27;48.44
52745;BME280;38637;49.984;20.426;2023-07-20T12:31:19;98775.16;;;25.06;47.23
52745;BME280;38637;49.984;20.426;2023-07-20T12:33:46;98786.75;;;24.85;49.60
52745;BME280;38637;49.984;20.426;2023-07-20T12:36:11;98777.25;;;24.66;49.43
52745;BME280;38637;49.984;20.426;2023-07-20T12:38:37;98772.09;;;24.68;49.73
52745;BME280;38637;49.984;20.426;2023-07-20T12:41:02;98776.94;;;24.71;50.10
52745;BME280;38637;49.984;20.426;2023-07-20T12:43:28;98781.41;;;24.76;49.41
52745;BME280;38637;49.984;20.426;2023-07-20T12:45:54;98771.06;;;24.76;50.52
52745;BME280;38637;49.984;20.426;2023-07-20T12:48:20;98776.38;;;24.85;50.64
52745;BME280;38637;49.984;20.426;2023-07-20T12:50:45;98768.22;;;24.96;50.94
52745;BME280;38637;49.984;20.426;2023-07-20T12:53:10;98766.72;;;25.02;51.12
52745;BME280;38637;49.984;20.426;2023-07-20T12:55:37;98771.16;;;25.07;50.58
52745;BME280;38637;49.984;20.426;2023-07-20T12:58:03;98770.88;;;25.12;49.23
52745;BME280;38637;49.984;20.426;2023-07-20T13:00:29;98770.81;;;25.08;47.62
52745;BME280;38637;49.984;20.426;2023-07-20T13:02:54;98765.06;;;25.20;46.99
52745;BME280;38637;49.984;20.426;2023-07-20T13:05:19;98771.41;;;25.17;48.52